sensor_id;sensor_type;location;lat;lon;timestamp;pressure;altitude;pressure_sealevel;temperature;humidity
58843;BME280;44614;54.356;10.100;2023-03-03T00:01:12;102219.41;;;-0.50;100.00
58843;BME280;44614;54.356;10.100;2023-03-03T00:03:37;102221.50;;;-0.53;100.00
58843;BME280;44614;54.356;10.100;2023-03-03T00:06:04;102223.56;;;-0.57;100.00
58843;BME280;44614;54.356;10.100;2023-03-03T00:08:29;102178.81;;;-0.83;100.00
58843;BME280;44614;54.356;10.100;2023-03-03T00:10:56;102223.38;;;-0.66;100.00
58843;BME280;44614;54.356;10.100;2023-03-03T00:13:24;102231.47;;;-0.66;100.00
58843;BME280;44614;54.356;10.100;2023-03-03T00:15:52;102225.34;;;-0.68;100.00
58843;BME280;44614;54.356;10.100;2023-03-03T00:18:27;102224.81;;;-0.74;100.00
58843;BME280;44614;54.356;10.100;2023-03-03T00:20:56;102226.88;;;-0.77;100.00
58843;BME280;44614;54.356;10.100;2023-03-03T00:23:34;102219.16;;;-0.82;100.00
58843;BME280;44614;54.356;10.100;2023-03-03T00:26:00;102226.59;;;-0.85;100.00
58843;BME280;44614;54.356;10.100;2023-03-03T00:30:56;102223.50;;;-0.92;100.00
58843;BME280;44614;54.356;10.100;2023-03-03T00:33:30;102212.97;;;-0.95;100.00
58843;BME280;44614;54.356;10.100;2023-03-03T00:36:12;102225.69;;;-0.97;100.00
58843;BME280;44614;54.356;10.100;2023-03-03T00:38:47;102218.81;;;-1.01;100.00
58843;BME280;44614;54.356;10.100;2023-03-03T00:41:26;102182.91;;;-1.26;100.00
58843;BME280;44614;54.356;10.100;2023-03-03T00:43:53;102217.53;;;-1.08;100.00
58843;BME280;44614;54.356;10.100;2023-03-03T00:46:21;102213.22;;;-1.11;100.00
58843;BME280;44614;54.356;10.100;2023-03-03T00:48:47;102213.47;;;-1.14;100.00
58843;BME280;44614;54.356;10.100;2023-03-03T00:51:32;102207.66;;;-1.20;100.00
58843;BME280;44614;54.356;10.100;2023-03-03T00:53:59;102211.09;;;-1.18;100.00
58843;BME280;44614;54.356;10.100;2023-03-03T00:56:26;102207.66;;;-1.20;100.00
58843;BME280;44614;54.356;10.100;2023-03-03T00:58:52;102202.72;;;-1.27;100.00
58843;BME280;44614;54.356;10.100;2023-03-03T01:01:18;102162.50;;;-1.54;100.00
58843;BME280;44614;54.356;10.100;2023-03-03T01:03:43;102217.19;;;-1.28;100.00
58843;BME280;44614;54.356;10.100;2023-03-03T01:06:10;102208.34;;;-1.30;100.00
58843;BME280;44614;54.356;10.100;2023-03-03T01:08:36;102208.56;;;-1.33;100.00
58843;BME280;44614;54.356;10.100;2023-03-03T01:11:15;102207.81;;;-1.35;100.00
58843;BME280;44614;54.356;10.100;2023-03-03T01:13:44;102209.78;;;-1.37;100.00
58843;BME280;44614;54.356;10.100;2023-03-03T01:16:12;102201.91;;;-1.40;100.00
58843;BME280;44614;54.356;10.100;2023-03-03T01:18:37;102164.38;;;-1.67;100.00
58843;BME280;44614;54.356;10.100;2023-03-03T01:21:05;102200.75;;;-1.49;100.00
58843;BME280;44614;54.356;10.100;2023-03-03T01:23:31;102205.16;;;-1.48;100.00
58843;BME280;44614;54.356;10.100;2023-03-03T01:25:56;102212.47;;;-1.50;100.00
58843;BME280;44614;54.356;10.100;2023-03-03T01:28:22;102204.53;;;-1.51;100.00
58843;BME280;44614;54.356;10.100;2023-03-03T01:30:47;102203.75;;;-1.53;100.00
58843;BME280;44614;54.356;10.100;2023-03-03T01:33:12;102195.94;;;-1.56;100.00
58843;BME280;44614;54.356;10.100;2023-03-03T01:35:43;102197.84;;;-1.58;100.00
58843;BME280;44614;54.356;10.100;2023-03-03T01:38:08;102193.53;;;-1.61;100.00
58843;BME280;44614;54.356;10.100;2023-03-03T01:40:34;102172.25;;;-1.77;100.00
58843;BME280;44614;54.356;10.100;2023-03-03T01:43:00;102199.19;;;-1.64;100.00
58843;BME280;44614;54.356;10.100;2023-03-03T01:45:43;102191.19;;;-1.65;100.00
58843;BME280;44614;54.356;10.100;2023-03-03T01:48:39;102180.75;;;-1.70;100.00
58843;BME280;44614;54.356;10.100;2023-03-03T01:51:31;102185.28;;;-1.70;100.00
58843;BME280;44614;54.356;10.100;2023-03-03T01:54:00;102179.81;;;-1.82;100.00
58843;BME280;44614;54.356;10.100;2023-03-03T01:56:27;102184.50;;;-1.73;100.00
58843;BME280;44614;54.356;10.100;2023-03-03T01:59:00;102174.84;;;-1.75;100.00
58843;BME280;44614;54.356;10.100;2023-03-03T02:01:29;102164.72;;;-1.84;100.00
58843;BME280;44614;54.356;10.100;2023-03-03T02:03:56;102173.34;;;-1.79;100.00
58843;BME280;44614;54.356;10.100;2023-03-03T02:06:25;102175.41;;;-1.83;100.00
58843;BME280;44614;54.356;10.100;2023-03-03T02:08:58;102170.97;;;-1.84;100.00
58843;BME280;44614;54.356;10.100;2023-03-03T02:11:25;102180.22;;;-1.88;100.00
58843;BME280;44614;54.356;10.100;2023-03-03T02:13:52;102180.34;;;-1.89;100.00
58843;BME280;44614;54.356;10.100;2023-03-03T02:16:17;102185.81;;;-1.91;100.00
58843;BME280;44614;54.356;10.100;2023-03-03T02:18:43;102186.81;;;-1.92;100.00
58843;BME280;44614;54.356;10.100;2023-03-03T02:21:14;102187.78;;;-1.93;100.00
58843;BME280;44614;54.356;10.100;2023-03-03T02:24:05;102195.00;;;-1.93;100.00
58843;BME280;44614;54.356;10.100;2023-03-03T02:26:35;102205.00;;;-1.96;100.00
58843;BME280;44614;54.356;10.100;2023-03-03T02:29:03;102196.19;;;-1.98;100.00
58843;BME280;44614;54.356;10.100;2023-03-03T02:31:29;102201.66;;;-1.99;100.00
58843;BME280;44614;54.356;10.100;2023-03-03T02:33:55;102190.50;;;-2.06;100.00
58843;BME280;44614;54.356;10.100;2023-03-03T02:36:27;102177.56;;;-2.13;100.00
58843;BME280;44614;54.356;10.100;2023-03-03T02:44:29;102187.56;;;-2.15;100.00
58843;BME280;44614;54.356;10.100;2023-03-03T02:46:56;102187.69;;;-2.17;100.00
58843;BME280;44614;54.356;10.100;2023-03-03T02:49:29;102185.09;;;-2.18;100.00
58843;BME280;44614;54.356;10.100;2023-03-03T02:51:56;102189.94;;;-2.24;100.00
58843;BME280;44614;54.356;10.100;2023-03-03T02:54:23;102183.38;;;-2.19;100.00
58843;BME280;44614;54.356;10.100;2023-03-03T02:56:49;102182.59;;;-2.22;100.00
58843;BME280;44614;54.356;10.100;2023-03-03T02:59:15;102171.09;;;-2.24;100.00
58843;BME280;44614;54.356;10.100;2023-03-03T03:01:40;102158.53;;;-2.36;100.00
58843;BME280;44614;54.356;10.100;2023-03-03T03:04:11;102172.28;;;-2.28;100.00
58843;BME280;44614;54.356;10.100;2023-03-03T03:06:37;102165.28;;;-2.30;100.00
58843;BME280;44614;54.356;10.100;2023-03-03T03:09:03;102166.34;;;-2.33;100.00
58843;BME280;44614;54.356;10.100;2023-03-03T03:11:29;102158.94;;;-2.42;100.00
58843;BME280;44614;54.356;10.100;2023-03-03T03:13:54;102160.66;;;-2.41;100.00
58843;BME280;44614;54.356;10.100;2023-03-03T03:16:20;102173.16;;;-2.40;100.00
58843;BME280;44614;54.356;10.100;2023-03-03T03:18:45;102165.28;;;-2.43;100.00
58843;BME280;44614;54.356;10.100;2023-03-03T03:21:12;102158.06;;;-2.42;100.00
58843;BME280;44614;54.356;10.100;2023-03-03T03:23:38;102158.19;;;-2.44;100.00
58843;BME280;44614;54.356;10.100;2023-03-03T03:26:05;102145.69;;;-2.45;100.00
58843;BME280;44614;54.356;10.100;2023-03-03T03:28:30;102148.59;;;-2.48;100.00
58843;BME280;44614;54.356;10.100;2023-03-03T03:30:56;102146.13;;;-2.51;100.00
58843;BME280;44614;54.356;10.100;2023-03-03T03:33:21;102146.13;;;-2.51;100.00
58843;BME280;44614;54.356;10.100;2023-03-03T03:35:47;102143.66;;;-2.54;100.00
58843;BME280;44614;54.356;10.100;2023-03-03T03:38:13;102138.47;;;-2.57;100.00
58843;BME280;44614;54.356;10.100;2023-03-03T03:40:39;102137.63;;;-2.58;100.00
58843;BME280;44614;54.356;10.100;2023-03-03T03:43:04;102134.94;;;-2.58;100.00
58843;BME280;44614;54.356;10.100;2023-03-03T03:45:30;102135.06;;;-2.59;100.00
58843;BME280;44614;54.356;10.100;2023-03-03T03:47:55;102130.63;;;-2.60;100.00
58843;BME280;44614;54.356;10.100;2023-03-03T03:50:21;102138.88;;;-2.63;100.00
58843;BME280;44614;54.356;10.100;2023-03-03T03:52:46;102132.78;;;-2.65;100.00
58843;BME280;44614;54.356;10.100;2023-03-03T03:55:12;102129.44;;;-2.69;100.00
58843;BME280;44614;54.356;10.100;2023-03-03T03:57:37;102141.16;;;-2.70;100.00
58843;BME280;44614;54.356;10.100;2023-03-03T04:00:04;102146.88;;;-2.75;100.00
58843;BME280;44614;54.356;10.100;2023-03-03T04:02:29;102142.63;;;-2.79;100.00
58843;BME280;44614;54.356;10.100;2023-03-03T04:04:55;102115.28;;;-2.98;100.00
58843;BME280;44614;54.356;10.100;2023-03-03T04:07:20;102147.28;;;-2.81;100.00
58843;BME280;44614;54.356;10.100;2023-03-03T04:09:45;102123.66;;;-3.03;100.00
58843;BME280;44614;54.356;10.100;2023-03-03T04:12:11;102163.59;;;-2.84;100.00
58843;BME280;44614;54.356;10.100;2023-03-03T04:14:36;102158.22;;;-2.84;100.00
58843;BME280;44614;54.356;10.100;2023-03-03T04:17:02;102149.16;;;-2.96;100.00
58843;BME280;44614;54.356;10.100;2023-03-03T04:19:27;102161.44;;;-2.91;100.00
58843;BME280;44614;54.356;10.100;2023-03-03T04:21:52;102162.28;;;-2.91;100.00
58843;BME280;44614;54.356;10.100;2023-03-03T04:24:18;102167.78;;;-2.92;100.00
58843;BME280;44614;54.356;10.100;2023-03-03T04:26:43;102175.00;;;-2.93;100.00
58843;BME280;44614;54.356;10.100;2023-03-03T04:29:09;102160.31;;;-3.02;100.00
58843;BME280;44614;54.356;10.100;2023-03-03T04:31:34;102162.59;;;-2.96;100.00
58843;BME280;44614;54.356;10.100;2023-03-03T04:34:00;102158.19;;;-2.97;100.00
58843;BME280;44614;54.356;10.100;2023-03-03T04:36:25;102150.22;;;-2.98;100.00
58843;BME280;44614;54.356;10.100;2023-03-03T04:38:50;102149.38;;;-2.99;100.00
58843;BME280;44614;54.356;10.100;2023-03-03T04:41:16;102148.50;;;-2.99;100.00
58843;BME280;44614;54.356;10.100;2023-03-03T04:43:41;102140.56;;;-3.01;100.00
58843;BME280;44614;54.356;10.100;2023-03-03T04:46:06;102135.28;;;-3.02;100.00
58843;BME280;44614;54.356;10.100;2023-03-03T04:48:32;102145.09;;;-3.01;100.00
58843;BME280;44614;54.356;10.100;2023-03-03T04:50:57;102186.25;;;-3.01;100.00
58843;BME280;44614;54.356;10.100;2023-03-03T04:53:23;102168.19;;;-2.99;100.00
58843;BME280;44614;54.356;10.100;2023-03-03T04:55:52;102159.06;;;-2.96;100.00
58843;BME280;44614;54.356;10.100;2023-03-03T04:58:18;102148.81;;;-3.04;100.00
58843;BME280;44614;54.356;10.100;2023-03-03T05:00:53;102173.69;;;-2.87;100.00
58843;BME280;44614;54.356;10.100;2023-03-03T05:03:18;102177.81;;;-2.82;100.00
58843;BME280;44614;54.356;10.100;2023-03-03T05:05:45;102161.25;;;-2.76;100.00
58843;BME280;44614;54.356;10.100;2023-03-03T05:08:10;102164.06;;;-2.64;100.00
58843;BME280;44614;54.356;10.100;2023-03-03T05:10:36;102174.41;;;-2.58;100.00
58843;BME280;44614;54.356;10.100;2023-03-03T05:13:01;102160.97;;;-2.58;100.00
58843;BME280;44614;54.356;10.100;2023-03-03T05:15:27;102163.78;;;-2.47;100.00
58843;BME280;44614;54.356;10.100;2023-03-03T05:17:52;102164.44;;;-2.43;100.00
58843;BME280;44614;54.356;10.100;2023-03-03T05:20:20;102168.63;;;-2.39;100.00
58843;BME280;44614;54.356;10.100;2023-03-03T05:22:46;102168.31;;;-2.35;100.00
58843;BME280;44614;54.356;10.100;2023-03-03T05:25:11;102159.81;;;-2.29;100.00
58843;BME280;44614;54.356;10.100;2023-03-03T05:27:37;102168.41;;;-2.24;100.00
58843;BME280;44614;54.356;10.100;2023-03-03T05:30:03;102166.25;;;-2.18;100.00
58843;BME280;44614;54.356;10.100;2023-03-03T05:32:29;102162.38;;;-2.14;100.00
58843;BME280;44614;54.356;10.100;2023-03-03T05:34:54;102160.44;;;-2.12;100.00
58843;BME280;44614;54.356;10.100;2023-03-03T05:37:20;102158.06;;;-2.04;100.00
58843;BME280;44614;54.356;10.100;2023-03-03T05:39:45;102162.16;;;-1.99;100.00
58843;BME280;44614;54.356;10.100;2023-03-03T05:42:11;102174.53;;;-1.96;100.00
58843;BME280;44614;54.356;10.100;2023-03-03T05:44:37;102178.94;;;-1.95;100.00
58843;BME280;44614;54.356;10.100;2023-03-03T05:47:02;102177.22;;;-1.96;100.00
58843;BME280;44614;54.356;10.100;2023-03-03T05:49:28;102173.47;;;-1.93;100.00
58843;BME280;44614;54.356;10.100;2023-03-03T05:51:53;102177.75;;;-1.91;100.00
58843;BME280;44614;54.356;10.100;2023-03-03T05:54:18;102173.78;;;-1.85;100.00
58843;BME280;44614;54.356;10.100;2023-03-03T05:56:44;102166.44;;;-1.83;100.00
58843;BME280;44614;54.356;10.100;2023-03-03T05:59:09;102176.03;;;-1.79;100.00
58843;BME280;44614;54.356;10.100;2023-03-03T06:01:35;102167.72;;;-1.76;100.00
58843;BME280;44614;54.356;10.100;2023-03-03T06:04:00;102163.09;;;-1.74;100.00
58843;BME280;44614;54.356;10.100;2023-03-03T06:06:25;102160.81;;;-1.67;100.00
58843;BME280;44614;54.356;10.100;2023-03-03T06:08:52;102154.25;;;-1.63;100.00
58843;BME280;44614;54.356;10.100;2023-03-03T06:11:18;102161.22;;;-1.61;100.00
58843;BME280;44614;54.356;10.100;2023-03-03T06:13:43;102160.13;;;-1.58;100.00
58843;BME280;44614;54.356;10.100;2023-03-03T06:16:09;102158.22;;;-1.56;100.00
58843;BME280;44614;54.356;10.100;2023-03-03T06:18:34;102152.69;;;-1.55;100.00
58843;BME280;44614;54.356;10.100;2023-03-03T06:20:59;102160.56;;;-1.52;100.00
58843;BME280;44614;54.356;10.100;2023-03-03T06:23:25;102163.91;;;-1.48;100.00
58843;BME280;44614;54.356;10.100;2023-03-03T06:25:50;102163.78;;;-1.47;100.00
58843;BME280;44614;54.356;10.100;2023-03-03T06:28:17;102167.22;;;-1.44;100.00
58843;BME280;44614;54.356;10.100;2023-03-03T06:30:42;102165.38;;;-1.44;100.00
58843;BME280;44614;54.356;10.100;2023-03-03T06:33:07;102163.41;;;-1.42;100.00
58843;BME280;44614;54.356;10.100;2023-03-03T06:35:33;102164.19;;;-1.40;100.00
58843;BME280;44614;54.356;10.100;2023-03-03T06:37:58;102167.59;;;-1.38;100.00
58843;BME280;44614;54.356;10.100;2023-03-03T06:40:23;102170.31;;;-1.38;100.00
58843;BME280;44614;54.356;10.100;2023-03-03T06:42:49;102175.47;;;-1.35;100.00
58843;BME280;44614;54.356;10.100;2023-03-03T06:45:14;102183.47;;;-1.33;100.00
58843;BME280;44614;54.356;10.100;2023-03-03T06:47:40;102177.31;;;-1.35;100.00
58843;BME280;44614;54.356;10.100;2023-03-03T06:50:06;102187.66;;;-1.29;100.00
58843;BME280;44614;54.356;10.100;2023-03-03T06:52:32;102194.75;;;-1.28;100.00
58843;BME280;44614;54.356;10.100;2023-03-03T06:55:00;102182.13;;;-1.28;100.00
58843;BME280;44614;54.356;10.100;2023-03-03T06:57:31;102188.38;;;-1.27;100.00
58843;BME280;44614;54.356;10.100;2023-03-03T07:00:13;102185.59;;;-1.26;100.00
58843;BME280;44614;54.356;10.100;2023-03-03T07:02:39;102145.88;;;-1.48;100.00
58843;BME280;44614;54.356;10.100;2023-03-03T07:05:10;102183.41;;;-1.20;100.00
58843;BME280;44614;54.356;10.100;2023-03-03T07:07:37;102185.13;;;-1.19;100.00
58843;BME280;44614;54.356;10.100;2023-03-03T07:10:12;102176.97;;;-1.31;100.00
58843;BME280;44614;54.356;10.100;2023-03-03T07:12:40;102187.81;;;-1.19;100.00
58843;BME280;44614;54.356;10.100;2023-03-03T07:15:24;102177.59;;;-1.27;100.00
58843;BME280;44614;54.356;10.100;2023-03-03T07:17:55;102190.28;;;-1.16;100.00
58843;BME280;44614;54.356;10.100;2023-03-03T07:20:35;102171.34;;;-1.28;100.00
58843;BME280;44614;54.356;10.100;2023-03-03T07:23:32;102179.38;;;-1.15;100.00
58843;BME280;44614;54.356;10.100;2023-03-03T07:25:56;102181.44;;;-1.18;100.00
58843;BME280;44614;54.356;10.100;2023-03-03T07:28:23;102193.28;;;-1.08;100.00
58843;BME280;44614;54.356;10.100;2023-03-03T07:30:48;102182.50;;;-1.08;100.00
58843;BME280;44614;54.356;10.100;2023-03-03T07:33:37;102189.72;;;-1.09;100.00
58843;BME280;44614;54.356;10.100;2023-03-03T07:36:24;102198.94;;;-1.00;100.00
58843;BME280;44614;54.356;10.100;2023-03-03T07:38:56;102202.63;;;-1.01;100.00
58843;BME280;44614;54.356;10.100;2023-03-03T07:41:23;102201.41;;;-0.97;100.00
58843;BME280;44614;54.356;10.100;2023-03-03T07:43:51;102196.25;;;-1.00;100.00
58843;BME280;44614;54.356;10.100;2023-03-03T07:48:52;102180.34;;;-0.92;100.00
58843;BME280;44614;54.356;10.100;2023-03-03T07:51:20;102203.94;;;-0.83;100.00
58843;BME280;44614;54.356;10.100;2023-03-03T07:53:47;102199.00;;;-0.89;100.00
58843;BME280;44614;54.356;10.100;2023-03-03T07:56:28;102183.59;;;-0.87;100.00
58843;BME280;44614;54.356;10.100;2023-03-03T07:58:54;102197.97;;;-0.75;100.00
58843;BME280;44614;54.356;10.100;2023-03-03T08:01:41;102191.25;;;-0.69;100.00
58843;BME280;44614;54.356;10.100;2023-03-03T08:04:23;102192.00;;;-0.67;100.00
58843;BME280;44614;54.356;10.100;2023-03-03T08:09:29;102204.41;;;-0.65;100.00
58843;BME280;44614;54.356;10.100;2023-03-03T08:12:00;102168.41;;;-0.77;100.00
58843;BME280;44614;54.356;10.100;2023-03-03T08:14:30;102204.41;;;-0.54;100.00
58843;BME280;44614;54.356;10.100;2023-03-03T08:16:58;102205.66;;;-0.46;100.00
58843;BME280;44614;54.356;10.100;2023-03-03T08:19:24;102201.66;;;-0.41;100.00
58843;BME280;44614;54.356;10.100;2023-03-03T08:21:50;102200.44;;;-0.37;100.00
58843;BME280;44614;54.356;10.100;2023-03-03T08:24:16;102204.25;;;-0.28;100.00
58843;BME280;44614;54.356;10.100;2023-03-03T08:26:42;102204.66;;;-0.21;100.00
58843;BME280;44614;54.356;10.100;2023-03-03T08:29:07;102199.13;;;-0.09;100.00
58843;BME280;44614;54.356;10.100;2023-03-03T08:31:33;102159.44;;;-0.31;100.00
58843;BME280;44614;54.356;10.100;2023-03-03T08:33:58;102195.34;;;-0.06;100.00
58843;BME280;44614;54.356;10.100;2023-03-03T08:36:24;102204.53;;;0.03;100.00
58843;BME280;44614;54.356;10.100;2023-03-03T08:38:49;102198.31;;;0.13;100.00
58843;BME280;44614;54.356;10.100;2023-03-03T08:41:14;102191.53;;;0.19;100.00
58843;BME280;44614;54.356;10.100;2023-03-03T08:43:40;102184.19;;;0.21;100.00
58843;BME280;44614;54.356;10.100;2023-03-03T08:46:06;102195.09;;;0.42;100.00
58843;BME280;44614;54.356;10.100;2023-03-03T08:48:32;102193.00;;;0.57;100.00
58843;BME280;44614;54.356;10.100;2023-03-03T08:50:58;102188.94;;;0.73;100.00
58843;BME280;44614;54.356;10.100;2023-03-03T08:53:24;102172.44;;;0.77;100.00
58843;BME280;44614;54.356;10.100;2023-03-03T08:55:50;102188.94;;;1.06;100.00
58843;BME280;44614;54.356;10.100;2023-03-03T08:58:17;102193.00;;;1.11;100.00
58843;BME280;44614;54.356;10.100;2023-03-03T09:00:43;102151.41;;;1.12;100.00
58843;BME280;44614;54.356;10.100;2023-03-03T09:03:09;102184.25;;;1.40;100.00
58843;BME280;44614;54.356;10.100;2023-03-03T09:05:36;102186.44;;;1.46;100.00
58843;BME280;44614;54.356;10.100;2023-03-03T09:08:02;102186.50;;;1.56;100.00
58843;BME280;44614;54.356;10.100;2023-03-03T09:10:28;102186.00;;;1.62;100.00
58843;BME280;44614;54.356;10.100;2023-03-03T09:12:57;102155.41;;;1.50;100.00
58843;BME280;44614;54.356;10.100;2023-03-03T09:15:24;102178.66;;;1.74;100.00
58843;BME280;44614;54.356;10.100;2023-03-03T09:17:50;102173.09;;;1.75;100.00
58843;BME280;44614;54.356;10.100;2023-03-03T09:22:49;102165.41;;;2.01;100.00
58843;BME280;44614;54.356;10.100;2023-03-03T09:25:41;102163.72;;;2.10;100.00
58843;BME280;44614;54.356;10.100;2023-03-03T09:28:21;102171.31;;;2.16;100.00
58843;BME280;44614;54.356;10.100;2023-03-03T09:30:49;102157.63;;;2.17;100.00
58843;BME280;44614;54.356;10.100;2023-03-03T09:35:44;102154.56;;;2.32;100.00
58843;BME280;44614;54.356;10.100;2023-03-03T09:38:28;102162.72;;;2.41;100.00
58843;BME280;44614;54.356;10.100;2023-03-03T09:47:22;102163.81;;;2.69;100.00
58843;BME280;44614;54.356;10.100;2023-03-03T09:52:49;102112.84;;;2.63;100.00
58843;BME280;44614;54.356;10.100;2023-03-03T09:55:29;102156.72;;;3.07;100.00
58843;BME280;44614;54.356;10.100;2023-03-03T10:01:08;102160.44;;;3.06;100.00
58843;BME280;44614;54.356;10.100;2023-03-03T10:06:37;102149.88;;;3.23;100.00
58843;BME280;44614;54.356;10.100;2023-03-03T10:14:55;102152.44;;;3.44;100.00
58843;BME280;44614;54.356;10.100;2023-03-03T10:20:24;102141.53;;;3.63;100.00
58843;BME280;44614;54.356;10.100;2023-03-03T10:22:56;102144.66;;;3.78;100.00
58843;BME280;44614;54.356;10.100;2023-03-03T10:31:32;102123.44;;;3.91;100.00
58843;BME280;44614;54.356;10.100;2023-03-03T10:36:47;102130.69;;;4.00;100.00
58843;BME280;44614;54.356;10.100;2023-03-03T10:39:44;102126.66;;;4.04;100.00
58843;BME280;44614;54.356;10.100;2023-03-03T10:54:21;102122.88;;;4.25;100.00
58843;BME280;44614;54.356;10.100;2023-03-03T11:02:17;102101.69;;;4.46;99.46
58843;BME280;44614;54.356;10.100;2023-03-03T11:13:31;102101.50;;;4.57;97.87
58843;BME280;44614;54.356;10.100;2023-03-03T11:19:03;102085.59;;;4.62;97.12
58843;BME280;44614;54.356;10.100;2023-03-03T11:27:12;102080.19;;;4.53;97.70
58843;BME280;44614;54.356;10.100;2023-03-03T11:30:24;102093.75;;;4.62;98.54
58843;BME280;44614;54.356;10.100;2023-03-03T11:33:04;102051.13;;;4.53;98.83
58843;BME280;44614;54.356;10.100;2023-03-03T11:41:05;102094.75;;;4.79;98.59
58843;BME280;44614;54.356;10.100;2023-03-03T11:43:45;102083.41;;;4.84;98.40
58843;BME280;44614;54.356;10.100;2023-03-03T11:46:21;102091.97;;;4.89;97.47
58843;BME280;44614;54.356;10.100;2023-03-03T11:48:59;102082.78;;;4.90;97.11
58843;BME280;44614;54.356;10.100;2023-03-03T11:55:12;102081.88;;;4.81;96.88
58843;BME280;44614;54.356;10.100;2023-03-03T11:57:31;102063.13;;;4.78;97.15
58843;BME280;44614;54.356;10.100;2023-03-03T12:00:04;102074.09;;;4.86;98.59
58843;BME280;44614;54.356;10.100;2023-03-03T12:03:25;102064.34;;;4.84;98.30
58843;BME280;44614;54.356;10.100;2023-03-03T12:06:32;102082.78;;;4.90;98.37
58843;BME280;44614;54.356;10.100;2023-03-03T12:09:26;102067.84;;;4.94;98.25
58843;BME280;44614;54.356;10.100;2023-03-03T12:11:57;102062.25;;;4.96;97.59
58843;BME280;44614;54.356;10.100;2023-03-03T12:17:23;102036.81;;;5.05;96.44
58843;BME280;44614;54.356;10.100;2023-03-03T12:20:13;102058.03;;;5.19;96.38
58843;BME280;44614;54.356;10.100;2023-03-03T12:23:00;102046.59;;;5.16;93.29
58843;BME280;44614;54.356;10.100;2023-03-03T12:25:41;102046.06;;;5.12;93.88
58843;BME280;44614;54.356;10.100;2023-03-03T12:28:19;102044.25;;;5.21;92.47
58843;BME280;44614;54.356;10.100;2023-03-03T12:31:10;102029.75;;;5.38;92.39
58843;BME280;44614;54.356;10.100;2023-03-03T12:33:56;102029.31;;;5.51;91.95
58843;BME280;44614;54.356;10.100;2023-03-03T12:42:11;102029.66;;;5.82;88.50
58843;BME280;44614;54.356;10.100;2023-03-03T12:53:17;101999.44;;;6.76;84.70
58843;BME280;44614;54.356;10.100;2023-03-03T12:55:54;102004.03;;;7.00;83.74
58843;BME280;44614;54.356;10.100;2023-03-03T13:03:55;101988.03;;;7.61;83.67
58843;BME280;44614;54.356;10.100;2023-03-03T13:06:36;101977.44;;;7.58;78.04
58843;BME280;44614;54.356;10.100;2023-03-03T13:09:18;101968.22;;;7.67;81.63
58843;BME280;44614;54.356;10.100;2023-03-03T13:14:39;101964.59;;;7.67;78.39
58843;BME280;44614;54.356;10.100;2023-03-03T13:17:26;101939.44;;;7.24;81.74
58843;BME280;44614;54.356;10.100;2023-03-03T13:20:00;101967.13;;;7.21;82.58
58843;BME280;44614;54.356;10.100;2023-03-03T13:22:38;101944.09;;;7.15;82.94
58843;BME280;44614;54.356;10.100;2023-03-03T13:28:00;101951.97;;;6.94;81.16
58843;BME280;44614;54.356;10.100;2023-03-03T13:30:32;101964.41;;;6.47;83.57
58843;BME280;44614;54.356;10.100;2023-03-03T13:33:20;101961.50;;;6.41;83.98
58843;BME280;44614;54.356;10.100;2023-03-03T13:38:21;101950.59;;;6.41;84.93
58843;BME280;44614;54.356;10.100;2023-03-03T13:40:56;101944.13;;;6.33;85.35
58843;BME280;44614;54.356;10.100;2023-03-03T13:43:37;101935.59;;;6.61;87.23
58843;BME280;44614;54.356;10.100;2023-03-03T13:46:27;101928.91;;;7.04;81.13
58843;BME280;44614;54.356;10.100;2023-03-03T14:05:26;101907.16;;;7.27;78.35
58843;BME280;44614;54.356;10.100;2023-03-03T14:08:11;101908.38;;;7.33;82.95
58843;BME280;44614;54.356;10.100;2023-03-03T14:10:58;101913.03;;;7.64;77.57
58843;BME280;44614;54.356;10.100;2023-03-03T14:13:43;101876.91;;;7.37;78.43
58843;BME280;44614;54.356;10.100;2023-03-03T14:16:35;101913.16;;;7.23;78.28
58843;BME280;44614;54.356;10.100;2023-03-03T14:19:36;101908.44;;;6.92;80.91
58843;BME280;44614;54.356;10.100;2023-03-03T14:22:18;101909.47;;;6.99;82.81
58843;BME280;44614;54.356;10.100;2023-03-03T14:27:36;101908.03;;;7.20;81.33
58843;BME280;44614;54.356;10.100;2023-03-03T14:30:32;101905.00;;;7.15;80.90
58843;BME280;44614;54.356;10.100;2023-03-03T14:33:17;101900.25;;;7.00;83.18
58843;BME280;44614;54.356;10.100;2023-03-03T14:35:51;101903.50;;;6.88;84.03
58843;BME280;44614;54.356;10.100;2023-03-03T14:38:36;101897.38;;;6.69;82.78
58843;BME280;44614;54.356;10.100;2023-03-03T14:41:13;101865.66;;;6.35;81.59
58843;BME280;44614;54.356;10.100;2023-03-03T14:43:41;101897.91;;;6.56;84.60
58843;BME280;44614;54.356;10.100;2023-03-03T14:48:52;101884.94;;;6.83;82.34
58843;BME280;44614;54.356;10.100;2023-03-03T14:51:27;101877.06;;;6.80;83.10
58843;BME280;44614;54.356;10.100;2023-03-03T14:53:54;101877.06;;;6.88;81.88
58843;BME280;44614;54.356;10.100;2023-03-03T14:56:32;101877.72;;;6.90;81.04
58843;BME280;44614;54.356;10.100;2023-03-03T14:59:18;101871.94;;;6.85;80.80
58843;BME280;44614;54.356;10.100;2023-03-03T15:01:44;101873.63;;;6.86;81.57
58843;BME280;44614;54.356;10.100;2023-03-03T15:06:47;101865.59;;;7.01;82.83
58843;BME280;44614;54.356;10.100;2023-03-03T15:11:56;101840.09;;;6.61;81.81
58843;BME280;44614;54.356;10.100;2023-03-03T15:14:29;101853.22;;;6.49;81.84
58843;BME280;44614;54.356;10.100;2023-03-03T15:17:16;101844.69;;;6.52;83.12
58843;BME280;44614;54.356;10.100;2023-03-03T15:19:51;101839.91;;;6.46;83.91
58843;BME280;44614;54.356;10.100;2023-03-03T15:22:48;101848.09;;;6.54;84.74
58843;BME280;44614;54.356;10.100;2023-03-03T15:25:46;101848.09;;;6.63;85.04
58843;BME280;44614;54.356;10.100;2023-03-03T15:33:36;101801.72;;;5.97;85.17